UAL21 EHAM-KIAH
Flight info
| Callsign | UAL21 |
|---|---|
| Flight time | N/A |
| Altitude | 28000 |
| Route | BERGI L60 PENIL M144 BAGSO DCT DOGAL/M078F290 DCT 54N020W 55N030W 55N040W 53N050W DCT RIKAL/N0459F300 N572A TOPPS/N0461F320 Q913 CABCI Q29 WWSHR/N0460F340 Q29 HARES DCT SWEUP DOOBI3 |
| Aircraft | B763/H-SDE3FGHIM3RWXY/LB1 |
Departure
| Time | N/A |
|---|---|
| Airport | Amsterdam Airport Schiphol (EHAM) |
Arrival
| Time | 2025-09-05 05:16 |
|---|---|
| Airport | George Bush Intercontinental Airport (KIAH) |
| Time | Latitude | Longitude | Altitude | Speed | Heading |
|---|---|---|---|---|---|
| 2025-09-05 04:21 | 33.81073 | -91.04173 | 33900 ft | 447 kts | 224° |
| 2025-09-05 04:22 | 33.68240 | -91.15230 | 33904 ft | 445 kts | 223° |
| 2025-09-05 04:24 | 33.47721 | -91.32822 | 33909 ft | 445 kts | 223° |
| 2025-09-05 04:26 | 33.27208 | -91.50303 | 33912 ft | 444 kts | 223° |
| 2025-09-05 04:29 | 33.04149 | -91.69836 | 33942 ft | 446 kts | 221° |
| 2025-09-05 04:31 | 32.84304 | -91.87942 | 33935 ft | 443 kts | 224° |
| 2025-09-05 04:33 | 32.64609 | -92.06181 | 33928 ft | 443 kts | 224° |
| 2025-09-05 04:35 | 32.44804 | -92.24414 | 33923 ft | 444 kts | 224° |
| 2025-09-05 04:37 | 32.24993 | -92.42550 | 33922 ft | 443 kts | 224° |
| 2025-09-05 04:38 | 32.07624 | -92.58366 | 33920 ft | 445 kts | 224° |
| 2025-09-05 04:41 | 31.86354 | -92.80025 | 33929 ft | 439 kts | 229° |
| 2025-09-05 04:42 | 31.70621 | -92.97637 | 33926 ft | 439 kts | 230° |
| 2025-09-05 04:45 | 31.50699 | -93.19810 | 33923 ft | 436 kts | 231° |
| 2025-09-05 04:46 | 31.34948 | -93.37244 | 33924 ft | 437 kts | 231° |
| 2025-09-05 04:48 | 31.17780 | -93.56151 | 30777 ft | 418 kts | 231° |
| 2025-09-05 04:50 | 31.00997 | -93.74530 | 26915 ft | 397 kts | 230° |
| 2025-09-05 04:52 | 30.86989 | -93.89806 | 23769 ft | 382 kts | 231° |
| 2025-09-05 04:52 | 30.85021 | -93.91948 | 23321 ft | 380 kts | 231° |
| 2025-09-05 04:53 | 30.79173 | -93.98302 | 21999 ft | 374 kts | 230° |
| 2025-09-05 04:54 | 30.76151 | -94.01582 | 21322 ft | 371 kts | 230° |
| 2025-09-05 04:54 | 30.73301 | -94.04672 | 20687 ft | 368 kts | 230° |
| 2025-09-05 04:55 | 30.69525 | -94.08762 | 19851 ft | 365 kts | 229° |
| 2025-09-05 04:55 | 30.67634 | -94.10809 | 19434 ft | 363 kts | 229° |
| 2025-09-05 04:56 | 30.62057 | -94.16836 | 18210 ft | 357 kts | 229° |
| 2025-09-05 04:57 | 30.54716 | -94.24757 | 16660 ft | 351 kts | 227° |
| 2025-09-05 04:57 | 30.51094 | -94.28659 | 15883 ft | 348 kts | 227° |
| 2025-09-05 04:58 | 30.47522 | -94.32503 | 15113 ft | 345 kts | 227° |
| 2025-09-05 04:58 | 30.43949 | -94.36343 | 14414 ft | 338 kts | 226° |
| 2025-09-05 04:59 | 30.40581 | -94.39954 | 14373 ft | 310 kts | 227° |
| 2025-09-05 04:59 | 30.37199 | -94.43263 | 13863 ft | 315 kts | 223° |
| 2025-09-05 04:59 | 30.35479 | -94.44899 | 13463 ft | 314 kts | 223° |
| 2025-09-05 05:00 | 30.30379 | -94.49756 | 12381 ft | 306 kts | 222° |
| 2025-09-05 05:01 | 30.27063 | -94.52911 | 11834 ft | 300 kts | 222° |
| 2025-09-05 05:01 | 30.23813 | -94.56003 | 11298 ft | 294 kts | 222° |
| 2025-09-05 05:02 | 30.20739 | -94.58914 | 11242 ft | 272 kts | 221° |
| 2025-09-05 05:02 | 30.19206 | -94.60292 | 11004 ft | 278 kts | 220° |
| 2025-09-05 05:02 | 30.16076 | -94.63081 | 10156 ft | 282 kts | 220° |
| 2025-09-05 05:03 | 30.13021 | -94.65798 | 10019 ft | 258 kts | 219° |
| 2025-09-05 05:03 | 30.10232 | -94.68280 | 9834 ft | 245 kts | 220° |
| 2025-09-05 05:04 | 30.06141 | -94.71922 | 9019 ft | 241 kts | 219° |
| 2025-09-05 05:05 | 30.03482 | -94.74322 | 8521 ft | 233 kts | 220° |
| 2025-09-05 05:05 | 30.02214 | -94.75487 | 8241 ft | 229 kts | 220° |
| 2025-09-05 05:06 | 30.00767 | -94.80542 | 7406 ft | 224 kts | 265° |
| 2025-09-05 05:06 | 30.00678 | -94.84201 | 6914 ft | 223 kts | 269° |
| 2025-09-05 05:06 | 30.00674 | -94.86031 | 6662 ft | 223 kts | 269° |
| 2025-09-05 05:07 | 30.00677 | -94.89703 | 6170 ft | 222 kts | 269° |
| 2025-09-05 05:07 | 30.01507 | -94.93102 | 5700 ft | 225 kts | 313° |
| 2025-09-05 05:08 | 30.03720 | -94.95771 | 5381 ft | 223 kts | 298° |
| 2025-09-05 05:09 | 30.03346 | -95.00997 | 5114 ft | 221 kts | 253° |
| 2025-09-05 05:09 | 30.02485 | -95.04413 | 4633 ft | 214 kts | 253° |
| 2025-09-05 05:10 | 30.01657 | -95.07711 | 4195 ft | 206 kts | 253° |
| 2025-09-05 05:10 | 30.01263 | -95.09287 | 4029 ft | 197 kts | 253° |
| 2025-09-05 05:10 | 30.00863 | -95.12385 | 3534 ft | 187 kts | 265° |
| 2025-09-05 05:11 | 30.00728 | -95.15372 | 3050 ft | 180 kts | 265° |
| 2025-09-05 05:11 | 30.00600 | -95.18246 | 2579 ft | 166 kts | 269° |
| 2025-09-05 05:12 | 30.00735 | -95.22016 | 1986 ft | 147 kts | 268° |
| 2025-09-05 05:13 | 30.00722 | -95.24522 | 1596 ft | 154 kts | 269° |
| 2025-09-05 05:13 | 30.00725 | -95.27023 | 1158 ft | 151 kts | 268° |
| 2025-09-05 05:14 | 30.00722 | -95.30730 | 539 ft | 152 kts | 268° |
| 2025-09-05 05:14 | 30.00724 | -95.33243 | 140 ft | 153 kts | 269° |
| 2025-09-05 05:15 | 30.00715 | -95.35259 | 100 ft | 67 kts | 270° |
| 2025-09-05 05:15 | 30.00720 | -95.35688 | 97 ft | 9 kts | 271° |
| 2025-09-05 05:16 | 30.00660 | -95.35763 | 97 ft | 6 kts | 180° |
| 2025-09-05 05:17 | 30.00477 | -95.35761 | 97 ft | 10 kts | 180° |
| 2025-09-05 05:17 | 30.00319 | -95.35746 | 100 ft | 11 kts | 149° |
| 2025-09-05 05:17 | 30.00251 | -95.35676 | 100 ft | 14 kts | 135° |
| 2025-09-05 05:18 | 30.00074 | -95.35515 | 100 ft | 17 kts | 158° |
| 2025-09-05 05:19 | 29.99708 | -95.35483 | 103 ft | 14 kts | 180° |
| 2025-09-05 05:19 | 29.99614 | -95.35486 | 103 ft | 11 kts | 181° |
| 2025-09-05 05:21 | 29.99541 | -95.35487 | 103 ft | 5 kts | 180° |
| 2025-09-05 05:21 | 29.99375 | -95.35485 | 103 ft | 11 kts | 179° |
| 2025-09-05 05:22 | 29.99179 | -95.35488 | 103 ft | 16 kts | 181° |
| 2025-09-05 05:22 | 29.99086 | -95.35262 | 102 ft | 21 kts | 90° |
| 2025-09-05 05:23 | 29.99087 | -95.34875 | 102 ft | 24 kts | 90° |
| 2025-09-05 05:24 | 29.99085 | -95.33851 | 103 ft | 26 kts | 89° |
| 2025-09-05 05:24 | 29.99087 | -95.33636 | 103 ft | 26 kts | 90° |
| 2025-09-05 05:25 | 29.99088 | -95.33196 | 101 ft | 24 kts | 90° |
| 2025-09-05 05:25 | 29.98955 | -95.33027 | 100 ft | 17 kts | 180° |
| 2025-09-05 05:26 | 29.98588 | -95.33025 | 100 ft | 17 kts | 180° |
| 2025-09-05 05:27 | 29.98342 | -95.33061 | 100 ft | 0 kts | 263° |
| 2025-09-05 05:28 | 29.98347 | -95.33083 | 100 ft | 0 kts | 308° |
| 2025-09-05 05:29 | 29.98354 | -95.33088 | 100 ft | 1 kts | 332° |
| 2025-09-05 05:29 | 29.98412 | -95.33141 | 100 ft | 7 kts | 317° |
| 2025-09-05 05:30 | 29.98432 | -95.33162 | 100 ft | 0 kts | 318° |